sensor_id;sensor_type;location;lat;lon;timestamp;pressure;altitude;pressure_sealevel;temperature;humidity
77881;BME280;67077;50.298;18.996;2023-07-31T00:02:22;97576.10;;;17.11;84.70
77881;BME280;67077;50.298;18.996;2023-07-31T00:04:48;97573.77;;;17.09;84.81
77881;BME280;67077;50.298;18.996;2023-07-31T00:07:15;97575.35;;;17.07;84.79
77881;BME280;67077;50.298;18.996;2023-07-31T00:09:42;97577.38;;;17.02;84.92
77881;BME280;67077;50.298;18.996;2023-07-31T00:12:08;97578.28;;;16.98;85.08
77881;BME280;67077;50.298;18.996;2023-07-31T00:14:35;97575.55;;;16.96;85.22
77881;BME280;67077;50.298;18.996;2023-07-31T00:17:01;97573.70;;;16.94;85.31
77881;BME280;67077;50.298;18.996;2023-07-31T00:19:28;97573.71;;;16.92;85.23
77881;BME280;67077;50.298;18.996;2023-07-31T00:21:54;97573.81;;;16.90;85.18
77881;BME280;67077;50.298;18.996;2023-07-31T00:24:21;97576.94;;;16.88;85.24
77881;BME280;67077;50.298;18.996;2023-07-31T00:26:47;97582.18;;;16.85;85.29
77881;BME280;67077;50.298;18.996;2023-07-31T00:29:14;97580.18;;;16.82;85.51
77881;BME280;67077;50.298;18.996;2023-07-31T00:31:40;97584.56;;;16.79;85.58
77881;BME280;67077;50.298;18.996;2023-07-31T00:34:07;97588.70;;;16.76;85.78
77881;BME280;67077;50.298;18.996;2023-07-31T00:36:33;97587.56;;;16.70;86.03
77881;BME280;67077;50.298;18.996;2023-07-31T00:39:00;97587.48;;;16.68;86.19
77881;BME280;67077;50.298;18.996;2023-07-31T00:41:26;97584.94;;;16.66;86.19
77881;BME280;67077;50.298;18.996;2023-07-31T00:43:53;97584.29;;;16.64;86.07
77881;BME280;67077;50.298;18.996;2023-07-31T00:46:20;97583.47;;;16.63;85.94
77881;BME280;67077;50.298;18.996;2023-07-31T00:48:46;97584.66;;;16.60;85.92
77881;BME280;67077;50.298;18.996;2023-07-31T00:51:13;97588.43;;;16.56;85.73
77881;BME280;67077;50.298;18.996;2023-07-31T00:53:40;97590.25;;;16.51;85.60
77881;BME280;67077;50.298;18.996;2023-07-31T00:56:07;97591.02;;;16.47;85.35
77881;BME280;67077;50.298;18.996;2023-07-31T00:58:35;97594.56;;;16.44;85.21
77881;BME280;67077;50.298;18.996;2023-07-31T01:01:01;97596.95;;;16.41;85.07
77881;BME280;67077;50.298;18.996;2023-07-31T01:03:28;97591.85;;;16.36;84.88
77881;BME280;67077;50.298;18.996;2023-07-31T01:06:30;97597.68;;;16.31;84.85
77881;BME280;67077;50.298;18.996;2023-07-31T01:09:03;97601.30;;;16.23;85.21
77881;BME280;67077;50.298;18.996;2023-07-31T01:11:34;97604.84;;;16.18;85.13
77881;BME280;67077;50.298;18.996;2023-07-31T01:14:01;97609.13;;;16.15;85.08
77881;BME280;67077;50.298;18.996;2023-07-31T01:16:28;97608.14;;;16.12;84.97
77881;BME280;67077;50.298;18.996;2023-07-31T01:18:54;97611.80;;;16.10;84.99
77881;BME280;67077;50.298;18.996;2023-07-31T01:24:22;97609.73;;;16.04;85.00
77881;BME280;67077;50.298;18.996;2023-07-31T01:27:05;97615.16;;;15.98;85.30
77881;BME280;67077;50.298;18.996;2023-07-31T01:29:47;97619.13;;;15.93;85.57
77881;BME280;67077;50.298;18.996;2023-07-31T01:32:17;97622.58;;;15.91;85.67
77881;BME280;67077;50.298;18.996;2023-07-31T01:34:44;97624.97;;;15.87;86.24
77881;BME280;67077;50.298;18.996;2023-07-31T01:37:11;97623.59;;;15.83;86.34
77881;BME280;67077;50.298;18.996;2023-07-31T01:39:38;97624.73;;;15.80;86.68
77881;BME280;67077;50.298;18.996;2023-07-31T01:42:04;97628.18;;;15.77;86.95
77881;BME280;67077;50.298;18.996;2023-07-31T01:44:31;97629.13;;;15.72;87.08
77881;BME280;67077;50.298;18.996;2023-07-31T01:46:58;97625.73;;;15.69;87.17
77881;BME280;67077;50.298;18.996;2023-07-31T01:49:26;97627.90;;;15.65;87.27
77881;BME280;67077;50.298;18.996;2023-07-31T01:51:53;97632.11;;;15.61;87.48
77881;BME280;67077;50.298;18.996;2023-07-31T01:54:19;97632.55;;;15.58;87.65
77881;BME280;67077;50.298;18.996;2023-07-31T01:56:46;97632.15;;;15.54;87.77
77881;BME280;67077;50.298;18.996;2023-07-31T01:59:12;97630.06;;;15.50;88.05
77881;BME280;67077;50.298;18.996;2023-07-31T02:01:39;97632.34;;;15.48;88.10
77881;BME280;67077;50.298;18.996;2023-07-31T02:04:05;97632.88;;;15.44;88.13
77881;BME280;67077;50.298;18.996;2023-07-31T02:06:32;97633.35;;;15.40;88.22
77881;BME280;67077;50.298;18.996;2023-07-31T02:08:59;97635.45;;;15.36;88.33
77881;BME280;67077;50.298;18.996;2023-07-31T02:11:25;97636.45;;;15.32;88.92
77881;BME280;67077;50.298;18.996;2023-07-31T02:13:52;97637.40;;;15.29;88.93
77881;BME280;67077;50.298;18.996;2023-07-31T02:16:18;97634.16;;;15.26;89.12
77881;BME280;67077;50.298;18.996;2023-07-31T02:18:45;97635.89;;;15.23;89.22
77881;BME280;67077;50.298;18.996;2023-07-31T02:21:11;97637.18;;;15.21;89.47
77881;BME280;67077;50.298;18.996;2023-07-31T02:23:37;97641.48;;;15.19;89.55
77881;BME280;67077;50.298;18.996;2023-07-31T02:26:04;97640.92;;;15.19;89.74
77881;BME280;67077;50.298;18.996;2023-07-31T02:28:30;97648.34;;;15.20;89.69
77881;BME280;67077;50.298;18.996;2023-07-31T02:30:57;97646.88;;;15.21;89.92
77881;BME280;67077;50.298;18.996;2023-07-31T02:33:23;97653.75;;;15.23;89.89
77881;BME280;67077;50.298;18.996;2023-07-31T02:35:50;97657.13;;;15.23;90.15
77881;BME280;67077;50.298;18.996;2023-07-31T02:38:16;97662.58;;;15.23;90.12
77881;BME280;67077;50.298;18.996;2023-07-31T02:40:43;97660.45;;;15.24;90.33
77881;BME280;67077;50.298;18.996;2023-07-31T02:43:09;97663.71;;;15.24;90.48
77881;BME280;67077;50.298;18.996;2023-07-31T02:45:36;97660.35;;;15.23;90.61
77881;BME280;67077;50.298;18.996;2023-07-31T02:48:02;97659.14;;;15.23;90.67
77881;BME280;67077;50.298;18.996;2023-07-31T02:50:29;97658.81;;;15.22;90.63
77881;BME280;67077;50.298;18.996;2023-07-31T02:52:56;97658.42;;;15.22;90.82
77881;BME280;67077;50.298;18.996;2023-07-31T02:55:22;97658.73;;;15.21;90.66
77881;BME280;67077;50.298;18.996;2023-07-31T02:57:49;97653.41;;;15.20;90.79
77881;BME280;67077;50.298;18.996;2023-07-31T03:00:15;97655.68;;;15.19;90.87
77881;BME280;67077;50.298;18.996;2023-07-31T03:02:42;97661.73;;;15.19;90.66
77881;BME280;67077;50.298;18.996;2023-07-31T03:05:08;97670.06;;;15.19;90.68
77881;BME280;67077;50.298;18.996;2023-07-31T03:07:35;97677.56;;;15.18;90.69
77881;BME280;67077;50.298;18.996;2023-07-31T03:10:01;97679.05;;;15.18;90.62
77881;BME280;67077;50.298;18.996;2023-07-31T03:12:29;97682.41;;;15.18;90.75
77881;BME280;67077;50.298;18.996;2023-07-31T03:14:55;97688.85;;;15.19;90.63
77881;BME280;67077;50.298;18.996;2023-07-31T03:17:21;97681.89;;;15.20;90.44
77881;BME280;67077;50.298;18.996;2023-07-31T03:19:48;97682.83;;;15.21;90.29
77881;BME280;67077;50.298;18.996;2023-07-31T03:22:16;97684.23;;;15.22;90.31
77881;BME280;67077;50.298;18.996;2023-07-31T03:24:42;97687.02;;;15.23;90.00
77881;BME280;67077;50.298;18.996;2023-07-31T03:27:09;97685.92;;;15.23;89.78
77881;BME280;67077;50.298;18.996;2023-07-31T03:29:35;97687.46;;;15.24;89.66
77881;BME280;67077;50.298;18.996;2023-07-31T03:32:02;97683.27;;;15.23;89.64
77881;BME280;67077;50.298;18.996;2023-07-31T03:34:28;97683.91;;;15.22;89.42
77881;BME280;67077;50.298;18.996;2023-07-31T03:36:55;97684.73;;;15.23;89.06
77881;BME280;67077;50.298;18.996;2023-07-31T03:39:22;97682.13;;;15.24;88.86
77881;BME280;67077;50.298;18.996;2023-07-31T03:41:48;97686.55;;;15.24;88.66
77881;BME280;67077;50.298;18.996;2023-07-31T03:44:14;97686.87;;;15.23;88.52
77881;BME280;67077;50.298;18.996;2023-07-31T03:46:41;97694.27;;;15.23;88.27
77881;BME280;67077;50.298;18.996;2023-07-31T03:49:07;97695.52;;;15.24;88.07
77881;BME280;67077;50.298;18.996;2023-07-31T03:51:34;97693.58;;;15.25;87.89
77881;BME280;67077;50.298;18.996;2023-07-31T03:54:00;97691.14;;;15.28;87.72
77881;BME280;67077;50.298;18.996;2023-07-31T03:56:27;97689.52;;;15.30;87.60
77881;BME280;67077;50.298;18.996;2023-07-31T03:58:53;97686.40;;;15.32;87.34
77881;BME280;67077;50.298;18.996;2023-07-31T04:01:20;97692.86;;;15.36;87.21
77881;BME280;67077;50.298;18.996;2023-07-31T04:03:46;97694.46;;;15.39;87.19
77881;BME280;67077;50.298;18.996;2023-07-31T04:06:13;97698.67;;;15.43;86.90
77881;BME280;67077;50.298;18.996;2023-07-31T04:08:39;97699.30;;;15.46;86.91
77881;BME280;67077;50.298;18.996;2023-07-31T04:11:06;97703.61;;;15.52;86.92
77881;BME280;67077;50.298;18.996;2023-07-31T04:13:32;97702.19;;;15.58;86.69
77881;BME280;67077;50.298;18.996;2023-07-31T04:16:00;97705.17;;;15.66;86.43
77881;BME280;67077;50.298;18.996;2023-07-31T04:18:26;97705.81;;;15.73;86.22
77881;BME280;67077;50.298;18.996;2023-07-31T04:20:53;97706.16;;;15.81;85.91
77881;BME280;67077;50.298;18.996;2023-07-31T04:23:19;97705.10;;;15.88;85.57
77881;BME280;67077;50.298;18.996;2023-07-31T04:25:46;97703.30;;;15.94;85.38
77881;BME280;67077;50.298;18.996;2023-07-31T04:28:12;97701.20;;;15.99;84.87
77881;BME280;67077;50.298;18.996;2023-07-31T04:30:39;97693.15;;;16.02;84.64
77881;BME280;67077;50.298;18.996;2023-07-31T04:33:05;97697.77;;;16.09;84.29
77881;BME280;67077;50.298;18.996;2023-07-31T04:35:32;97703.42;;;16.16;83.95
77881;BME280;67077;50.298;18.996;2023-07-31T04:37:58;97705.56;;;16.18;83.60
77881;BME280;67077;50.298;18.996;2023-07-31T04:40:25;97704.04;;;16.21;83.10
77881;BME280;67077;50.298;18.996;2023-07-31T04:42:51;97706.43;;;16.26;82.74
77881;BME280;67077;50.298;18.996;2023-07-31T04:45:18;97709.89;;;16.29;82.56
77881;BME280;67077;50.298;18.996;2023-07-31T04:47:44;97715.19;;;16.34;82.45
77881;BME280;67077;50.298;18.996;2023-07-31T04:50:11;97711.30;;;16.40;82.24
77881;BME280;67077;50.298;18.996;2023-07-31T04:52:39;97709.37;;;16.47;81.78
77881;BME280;67077;50.298;18.996;2023-07-31T04:55:05;97715.97;;;16.48;81.22
77881;BME280;67077;50.298;18.996;2023-07-31T04:57:32;97720.93;;;16.50;80.66
77881;BME280;67077;50.298;18.996;2023-07-31T04:59:58;97721.56;;;16.53;80.26
77881;BME280;67077;50.298;18.996;2023-07-31T05:02:25;97716.46;;;16.59;80.07
77881;BME280;67077;50.298;18.996;2023-07-31T05:04:51;97717.52;;;16.66;79.70
77881;BME280;67077;50.298;18.996;2023-07-31T05:07:18;97719.94;;;16.74;79.36
77881;BME280;67077;50.298;18.996;2023-07-31T05:09:44;97718.31;;;16.81;78.99
77881;BME280;67077;50.298;18.996;2023-07-31T05:12:11;97717.84;;;16.84;78.45
77881;BME280;67077;50.298;18.996;2023-07-31T05:14:37;97716.92;;;16.88;78.31
77881;BME280;67077;50.298;18.996;2023-07-31T05:17:04;97715.40;;;16.92;77.93
77881;BME280;67077;50.298;18.996;2023-07-31T05:19:30;97716.80;;;17.02;77.68
77881;BME280;67077;50.298;18.996;2023-07-31T05:21:57;97719.38;;;17.12;77.35
77881;BME280;67077;50.298;18.996;2023-07-31T05:24:23;97719.02;;;17.21;76.95
77881;BME280;67077;50.298;18.996;2023-07-31T05:26:50;97719.41;;;17.33;76.54
77881;BME280;67077;50.298;18.996;2023-07-31T05:29:16;97718.67;;;17.48;75.80
77881;BME280;67077;50.298;18.996;2023-07-31T05:31:43;97720.35;;;17.57;74.91
77881;BME280;67077;50.298;18.996;2023-07-31T05:34:09;97716.77;;;17.65;74.51
77881;BME280;67077;50.298;18.996;2023-07-31T05:36:36;97720.83;;;17.75;74.58
77881;BME280;67077;50.298;18.996;2023-07-31T05:39:02;97723.92;;;17.86;74.25
77881;BME280;67077;50.298;18.996;2023-07-31T05:41:33;97725.41;;;17.99;73.42
77881;BME280;67077;50.298;18.996;2023-07-31T05:43:59;97724.08;;;18.03;72.62
77881;BME280;67077;50.298;18.996;2023-07-31T05:46:26;97726.81;;;18.10;72.27
77881;BME280;67077;50.298;18.996;2023-07-31T05:48:52;97724.95;;;18.13;72.28
77881;BME280;67077;50.298;18.996;2023-07-31T05:51:19;97729.74;;;18.17;71.88
77881;BME280;67077;50.298;18.996;2023-07-31T05:53:45;97725.95;;;18.20;71.50
77881;BME280;67077;50.298;18.996;2023-07-31T05:56:11;97728.04;;;18.26;71.36
77881;BME280;67077;50.298;18.996;2023-07-31T05:58:38;97727.30;;;18.33;70.68
77881;BME280;67077;50.298;18.996;2023-07-31T06:01:04;97724.16;;;18.41;70.62
77881;BME280;67077;50.298;18.996;2023-07-31T06:03:31;97724.05;;;18.44;69.82
77881;BME280;67077;50.298;18.996;2023-07-31T06:05:57;97724.79;;;18.39;69.80
77881;BME280;67077;50.298;18.996;2023-07-31T06:08:24;97724.59;;;18.45;69.51
77881;BME280;67077;50.298;18.996;2023-07-31T06:10:50;97724.13;;;18.49;69.54
77881;BME280;67077;50.298;18.996;2023-07-31T06:13:17;97725.73;;;18.48;68.66
77881;BME280;67077;50.298;18.996;2023-07-31T06:15:43;97730.44;;;18.45;68.81
77881;BME280;67077;50.298;18.996;2023-07-31T06:18:09;97727.79;;;18.50;69.18
77881;BME280;67077;50.298;18.996;2023-07-31T06:20:36;97728.71;;;18.57;68.87
77881;BME280;67077;50.298;18.996;2023-07-31T06:23:03;97731.77;;;18.62;68.56
77881;BME280;67077;50.298;18.996;2023-07-31T06:25:30;97728.91;;;18.69;67.93
77881;BME280;67077;50.298;18.996;2023-07-31T06:27:56;97725.83;;;18.73;67.82
77881;BME280;67077;50.298;18.996;2023-07-31T06:30:23;97721.40;;;18.82;68.14
77881;BME280;67077;50.298;18.996;2023-07-31T06:32:49;97722.02;;;18.93;68.19
77881;BME280;67077;50.298;18.996;2023-07-31T06:35:16;97725.80;;;18.98;67.28
77881;BME280;67077;50.298;18.996;2023-07-31T06:37:42;97719.73;;;18.99;66.61
77881;BME280;67077;50.298;18.996;2023-07-31T06:40:10;97718.20;;;19.00;66.75
77881;BME280;67077;50.298;18.996;2023-07-31T06:42:37;97715.63;;;18.97;66.20
77881;BME280;67077;50.298;18.996;2023-07-31T06:45:04;97715.72;;;19.00;66.77
77881;BME280;67077;50.298;18.996;2023-07-31T06:47:31;97717.13;;;19.11;66.54
77881;BME280;67077;50.298;18.996;2023-07-31T06:49:58;97715.11;;;19.21;66.19
77881;BME280;67077;50.298;18.996;2023-07-31T06:52:25;97713.86;;;19.35;65.83
77881;BME280;67077;50.298;18.996;2023-07-31T06:55:17;97718.89;;;19.46;65.22
77881;BME280;67077;50.298;18.996;2023-07-31T06:57:47;97717.73;;;19.58;64.89
77881;BME280;67077;50.298;18.996;2023-07-31T07:00:14;97718.44;;;19.70;63.85
77881;BME280;67077;50.298;18.996;2023-07-31T07:02:40;97718.73;;;19.76;63.48
77881;BME280;67077;50.298;18.996;2023-07-31T07:05:07;97717.82;;;19.86;63.59
77881;BME280;67077;50.298;18.996;2023-07-31T07:07:35;97716.77;;;19.95;63.19
77881;BME280;67077;50.298;18.996;2023-07-31T07:10:03;97713.92;;;20.05;63.26
77881;BME280;67077;50.298;18.996;2023-07-31T07:12:30;97709.77;;;20.14;62.24
77881;BME280;67077;50.298;18.996;2023-07-31T07:14:57;97712.02;;;20.18;61.70
77881;BME280;67077;50.298;18.996;2023-07-31T07:17:25;97712.68;;;20.18;61.20
77881;BME280;67077;50.298;18.996;2023-07-31T07:19:52;97716.04;;;20.17;60.50
77881;BME280;67077;50.298;18.996;2023-07-31T07:22:19;97714.52;;;20.15;59.54
77881;BME280;67077;50.298;18.996;2023-07-31T07:24:48;97710.67;;;20.11;59.22
77881;BME280;67077;50.298;18.996;2023-07-31T07:27:14;97707.16;;;20.12;60.26
77881;BME280;67077;50.298;18.996;2023-07-31T07:29:41;97706.39;;;20.21;60.61
77881;BME280;67077;50.298;18.996;2023-07-31T07:32:07;97708.35;;;20.28;60.10
77881;BME280;67077;50.298;18.996;2023-07-31T07:34:35;97711.61;;;20.37;59.67
77881;BME280;67077;50.298;18.996;2023-07-31T07:37:01;97712.16;;;20.43;59.54
77881;BME280;67077;50.298;18.996;2023-07-31T07:39:28;97715.55;;;20.45;58.74
77881;BME280;67077;50.298;18.996;2023-07-31T07:41:55;97712.74;;;20.51;58.90
77881;BME280;67077;50.298;18.996;2023-07-31T07:44:21;97713.54;;;20.63;59.30
77881;BME280;67077;50.298;18.996;2023-07-31T07:46:48;97710.90;;;20.71;58.74
77881;BME280;67077;50.298;18.996;2023-07-31T07:49:15;97715.48;;;20.77;58.72
77881;BME280;67077;50.298;18.996;2023-07-31T07:51:41;97711.21;;;20.90;58.63
77881;BME280;67077;50.298;18.996;2023-07-31T07:54:08;97709.08;;;21.02;57.62
77881;BME280;67077;50.298;18.996;2023-07-31T07:56:35;97706.88;;;21.09;56.96
77881;BME280;67077;50.298;18.996;2023-07-31T07:59:02;97710.78;;;21.17;57.08
77881;BME280;67077;50.298;18.996;2023-07-31T08:01:29;97708.23;;;21.23;57.00
77881;BME280;67077;50.298;18.996;2023-07-31T08:03:55;97712.52;;;21.30;56.73
77881;BME280;67077;50.298;18.996;2023-07-31T08:06:22;97714.26;;;21.31;56.30
77881;BME280;67077;50.298;18.996;2023-07-31T08:08:48;97712.95;;;21.30;55.45
77881;BME280;67077;50.298;18.996;2023-07-31T08:11:15;97712.67;;;21.34;55.74
77881;BME280;67077;50.298;18.996;2023-07-31T08:13:41;97717.66;;;21.41;57.60
77881;BME280;67077;50.298;18.996;2023-07-31T08:16:08;97716.59;;;21.51;57.06
77881;BME280;67077;50.298;18.996;2023-07-31T08:18:35;97716.49;;;21.50;57.33
77881;BME280;67077;50.298;18.996;2023-07-31T08:21:02;97715.11;;;21.60;59.04
77881;BME280;67077;50.298;18.996;2023-07-31T08:23:31;97718.54;;;21.76;57.60
77881;BME280;67077;50.298;18.996;2023-07-31T08:25:57;97724.89;;;21.88;57.49
77881;BME280;67077;50.298;18.996;2023-07-31T08:28:24;97718.10;;;21.93;55.26
77881;BME280;67077;50.298;18.996;2023-07-31T08:30:50;97722.59;;;21.97;56.33
77881;BME280;67077;50.298;18.996;2023-07-31T08:33:17;97722.52;;;22.10;56.16
77881;BME280;67077;50.298;18.996;2023-07-31T08:35:44;97722.80;;;22.12;55.32
77881;BME280;67077;50.298;18.996;2023-07-31T08:38:13;97725.35;;;22.17;54.83
77881;BME280;67077;50.298;18.996;2023-07-31T08:40:39;97724.54;;;22.16;55.01
77881;BME280;67077;50.298;18.996;2023-07-31T08:43:09;97724.73;;;22.17;54.09
77881;BME280;67077;50.298;18.996;2023-07-31T08:45:36;97720.38;;;22.18;54.11
77881;BME280;67077;50.298;18.996;2023-07-31T08:48:03;97718.56;;;22.18;54.22
77881;BME280;67077;50.298;18.996;2023-07-31T08:50:30;97715.85;;;22.25;54.41
77881;BME280;67077;50.298;18.996;2023-07-31T08:52:57;97717.44;;;22.37;53.91
77881;BME280;67077;50.298;18.996;2023-07-31T08:55:24;97714.85;;;22.43;53.02
77881;BME280;67077;50.298;18.996;2023-07-31T08:57:51;97716.27;;;22.46;52.11
77881;BME280;67077;50.298;18.996;2023-07-31T09:00:19;97710.36;;;22.44;51.42
77881;BME280;67077;50.298;18.996;2023-07-31T09:05:23;97714.64;;;22.79;52.09
77881;BME280;67077;50.298;18.996;2023-07-31T09:07:51;97709.45;;;22.92;50.76
77881;BME280;67077;50.298;18.996;2023-07-31T09:10:17;97712.19;;;23.02;50.34
77881;BME280;67077;50.298;18.996;2023-07-31T09:12:44;97713.27;;;23.12;49.79
77881;BME280;67077;50.298;18.996;2023-07-31T09:15:12;97708.15;;;23.17;49.85
77881;BME280;67077;50.298;18.996;2023-07-31T09:17:38;97704.00;;;23.28;50.08
77881;BME280;67077;50.298;18.996;2023-07-31T09:20:25;97706.33;;;23.46;49.96
77881;BME280;67077;50.298;18.996;2023-07-31T09:22:52;97705.83;;;23.52;49.13
77881;BME280;67077;50.298;18.996;2023-07-31T09:25:25;97709.66;;;23.56;49.05
77881;BME280;67077;50.298;18.996;2023-07-31T09:28:04;97701.56;;;23.62;48.46
77881;BME280;67077;50.298;18.996;2023-07-31T09:30:32;97696.97;;;23.71;48.29
77881;BME280;67077;50.298;18.996;2023-07-31T09:33:09;97695.00;;;23.81;47.78
77881;BME280;67077;50.298;18.996;2023-07-31T09:35:36;97697.81;;;23.99;47.63
77881;BME280;67077;50.298;18.996;2023-07-31T09:38:07;97692.95;;;24.13;47.07
77881;BME280;67077;50.298;18.996;2023-07-31T09:40:36;97687.55;;;24.19;46.63
77881;BME280;67077;50.298;18.996;2023-07-31T09:43:04;97691.17;;;24.26;46.00
77881;BME280;67077;50.298;18.996;2023-07-31T09:45:37;97689.82;;;24.34;45.76
77881;BME280;67077;50.298;18.996;2023-07-31T09:48:10;97685.23;;;24.35;45.32
77881;BME280;67077;50.298;18.996;2023-07-31T09:50:39;97683.64;;;24.27;44.77
77881;BME280;67077;50.298;18.996;2023-07-31T09:53:06;97676.98;;;24.28;45.14
77881;BME280;67077;50.298;18.996;2023-07-31T09:55:33;97679.98;;;24.42;45.48
77881;BME280;67077;50.298;18.996;2023-07-31T09:58:08;97686.23;;;24.58;44.77
77881;BME280;67077;50.298;18.996;2023-07-31T10:00:36;97679.49;;;24.48;42.09
77881;BME280;67077;50.298;18.996;2023-07-31T10:03:10;97675.39;;;24.22;42.23
77881;BME280;67077;50.298;18.996;2023-07-31T10:05:50;97678.19;;;24.18;43.83
77881;BME280;67077;50.298;18.996;2023-07-31T10:08:20;97676.91;;;24.21;43.49
77881;BME280;67077;50.298;18.996;2023-07-31T10:10:48;97675.04;;;24.29;43.56
77881;BME280;67077;50.298;18.996;2023-07-31T10:13:16;97675.02;;;24.44;43.61
77881;BME280;67077;50.298;18.996;2023-07-31T10:15:44;97670.66;;;24.52;43.69
77881;BME280;67077;50.298;18.996;2023-07-31T10:18:12;97668.58;;;24.61;43.03
77881;BME280;67077;50.298;18.996;2023-07-31T10:20:50;97665.98;;;24.61;42.91
77881;BME280;67077;50.298;18.996;2023-07-31T10:28:01;97649.98;;;24.38;42.66
77881;BME280;67077;50.298;18.996;2023-07-31T10:30:32;97651.89;;;24.31;42.34
77881;BME280;67077;50.298;18.996;2023-07-31T10:33:03;97651.83;;;24.16;41.09
77881;BME280;67077;50.298;18.996;2023-07-31T10:39:33;97643.59;;;23.78;43.04
77881;BME280;67077;50.298;18.996;2023-07-31T10:42:27;97643.60;;;23.72;42.85
77881;BME280;67077;50.298;18.996;2023-07-31T10:45:43;97648.63;;;23.66;42.41
77881;BME280;67077;50.298;18.996;2023-07-31T10:48:17;97637.21;;;23.60;42.39
77881;BME280;67077;50.298;18.996;2023-07-31T10:50:58;97638.85;;;23.63;43.25
77881;BME280;67077;50.298;18.996;2023-07-31T10:56:00;97630.89;;;23.74;43.00
77881;BME280;67077;50.298;18.996;2023-07-31T10:58:27;97628.54;;;23.81;42.72
77881;BME280;67077;50.298;18.996;2023-07-31T11:01:05;97627.33;;;23.79;41.80
77881;BME280;67077;50.298;18.996;2023-07-31T11:03:45;97623.54;;;23.84;42.64
77881;BME280;67077;50.298;18.996;2023-07-31T11:06:13;97623.41;;;23.94;42.31
77881;BME280;67077;50.298;18.996;2023-07-31T11:08:43;97624.91;;;23.96;41.98
77881;BME280;67077;50.298;18.996;2023-07-31T11:11:17;97621.70;;;23.98;41.23
77881;BME280;67077;50.298;18.996;2023-07-31T11:13:53;97618.70;;;23.93;40.83
77881;BME280;67077;50.298;18.996;2023-07-31T11:16:23;97616.33;;;23.93;41.26
77881;BME280;67077;50.298;18.996;2023-07-31T11:18:52;97613.17;;;23.93;41.40
77881;BME280;67077;50.298;18.996;2023-07-31T11:21:24;97616.68;;;24.03;41.48
77881;BME280;67077;50.298;18.996;2023-07-31T11:23:56;97611.64;;;24.18;41.21
77881;BME280;67077;50.298;18.996;2023-07-31T11:26:24;97615.64;;;24.31;40.70
77881;BME280;67077;50.298;18.996;2023-07-31T11:28:51;97605.23;;;24.34;40.98
77881;BME280;67077;50.298;18.996;2023-07-31T11:31:18;97600.02;;;24.35;40.77
77881;BME280;67077;50.298;18.996;2023-07-31T11:33:45;97605.89;;;24.39;40.71
77881;BME280;67077;50.298;18.996;2023-07-31T11:36:20;97599.52;;;24.51;40.65
77881;BME280;67077;50.298;18.996;2023-07-31T11:38:47;97602.55;;;24.58;40.72
77881;BME280;67077;50.298;18.996;2023-07-31T11:41:31;97603.33;;;24.48;39.76
77881;BME280;67077;50.298;18.996;2023-07-31T11:44:04;97603.59;;;24.30;40.49
77881;BME280;67077;50.298;18.996;2023-07-31T11:46:31;97600.46;;;24.24;40.22
77881;BME280;67077;50.298;18.996;2023-07-31T11:49:00;97596.09;;;24.19;39.96
77881;BME280;67077;50.298;18.996;2023-07-31T11:51:27;97590.94;;;24.13;40.61
77881;BME280;67077;50.298;18.996;2023-07-31T11:53:59;97593.90;;;24.06;39.96
77881;BME280;67077;50.298;18.996;2023-07-31T11:56:28;97589.20;;;24.03;40.58
77881;BME280;67077;50.298;18.996;2023-07-31T11:58:59;97587.42;;;24.11;41.06
77881;BME280;67077;50.298;18.996;2023-07-31T12:01:32;97584.60;;;24.21;40.55
77881;BME280;67077;50.298;18.996;2023-07-31T12:04:00;97585.37;;;24.27;40.47
77881;BME280;67077;50.298;18.996;2023-07-31T12:06:34;97586.80;;;24.27;40.29
77881;BME280;67077;50.298;18.996;2023-07-31T12:09:05;97587.57;;;24.30;40.07
77881;BME280;67077;50.298;18.996;2023-07-31T12:11:43;97586.02;;;24.32;40.16
77881;BME280;67077;50.298;18.996;2023-07-31T12:14:27;97583.10;;;24.33;40.22
77881;BME280;67077;50.298;18.996;2023-07-31T12:17:06;97575.23;;;24.40;40.54
77881;BME280;67077;50.298;18.996;2023-07-31T12:19:33;97572.58;;;24.48;40.72
77881;BME280;67077;50.298;18.996;2023-07-31T12:22:02;97569.36;;;24.61;40.29
77881;BME280;67077;50.298;18.996;2023-07-31T12:24:40;97567.20;;;24.81;40.13
77881;BME280;67077;50.298;18.996;2023-07-31T12:27:12;97561.48;;;24.99;40.06
77881;BME280;67077;50.298;18.996;2023-07-31T12:29:39;97555.99;;;25.21;39.78
77881;BME280;67077;50.298;18.996;2023-07-31T12:32:24;97557.91;;;25.30;39.37
77881;BME280;67077;50.298;18.996;2023-07-31T12:34:59;97554.21;;;25.36;39.70
77881;BME280;67077;50.298;18.996;2023-07-31T12:37:29;97550.81;;;25.32;39.19
77881;BME280;67077;50.298;18.996;2023-07-31T12:39:58;97542.55;;;25.24;39.59
77881;BME280;67077;50.298;18.996;2023-07-31T12:42:30;97539.54;;;25.17;39.59
77881;BME280;67077;50.298;18.996;2023-07-31T12:44:57;97537.01;;;25.06;40.04
77881;BME280;67077;50.298;18.996;2023-07-31T12:47:25;97534.59;;;25.00;40.52
77881;BME280;67077;50.298;18.996;2023-07-31T12:50:02;97536.06;;;25.02;40.52
77881;BME280;67077;50.298;18.996;2023-07-31T12:52:48;97536.57;;;25.11;39.98
77881;BME280;67077;50.298;18.996;2023-07-31T12:55:31;97532.02;;;25.18;39.74
77881;BME280;67077;50.298;18.996;2023-07-31T12:57:58;97530.64;;;25.19;39.56
77881;BME280;67077;50.298;18.996;2023-07-31T13:00:25;97530.96;;;25.21;39.80
77881;BME280;67077;50.298;18.996;2023-07-31T13:02:53;97526.85;;;25.23;39.91
77881;BME280;67077;50.298;18.996;2023-07-31T13:05:20;97524.73;;;25.25;39.39
77881;BME280;67077;50.298;18.996;2023-07-31T13:07:48;97523.36;;;25.35;39.36
77881;BME280;67077;50.298;18.996;2023-07-31T13:10:15;97516.15;;;25.42;38.79
77881;BME280;67077;50.298;18.996;2023-07-31T13:12:42;97516.77;;;25.42;38.74
77881;BME280;67077;50.298;18.996;2023-07-31T13:15:09;97517.48;;;25.40;39.00